航空気象通報

ウインドサーファーのための航空気象通報による風予報です。

5/31-6/2の航空気象通報

2018年05月31日 22時40分16秒 | TAF
羽田空港
TAF RJTT 311105Z 3112/0118 22010KT 9999 FEW020 BKN050 
  BECMG 3113/3115 34012KT 
  BECMG 0100/0103 10010KT 
  BECMG 0106/0109 18014KT 
  BECMG 0112/0115 10008KT
日本時間31日21-22時:220度から10ノットの風
22-24時:風が変化
1日00-09時:340度から12ノットの風
09-12時:風が変化
12-15時:100度から10ノットの風
15-18時:風が変化
18-21時:140度から14ノットの風
21-24時:風が変化
2日00-03時:100度から8ノットの風

静岡空港
TAF RJNS 311107Z 3112/0118 26012KT 9999 FEW010 BKN020 
  BECMG 3120/3122 04004KT 
  BECMG 0100/0103 16010KT 
  BECMG 0109/0112 08004KT
日本時間31日21時-1日05時:260度から12ノットの風
05-07時:風が変化
07-09時:040度から4ノットの風
09-12時:風が変化
12-18時:160度から10ノットの風
18-21時:風が変化
21時-2日03時:080度から4ノットの風

福岡空港
TAF RJFF 311106Z 3112/0118 33005KT 9999 FEW020 
  BECMG 3116/3118 14004KT 
  BECMG 0100/0103 34008KT 
  BECMG 0112/0115 18004KT
日本時間31日21時-1日01時:330度から5ノットの風
01-03時:風が変化
03-09時:140度から4ノットの風
09-12時:風が変化
12-21時:340度から8ノットの風
21-24時:風が変化
2日00-03時:180度から4ノットの風

那覇空港
TAF ROAH 311105Z 3112/0118 33006KT 9999 SCT005 BKN010 
  TEMPO 3112/3116 33017G27KT 3000 TSRA SCT003 BKN008 SCT020CB 
  TEMPO 3116/3118 4000 SHRA SCT003 BKN008 FEW020CB 
  TEMPO 0100/0103 4000 SHRA SCT006 BKN010 FEW020CB 
  BECMG 0103/0106 04011KT
日本時間31日21時-1日12時:330度から6ノットの風
12-15時:風が変化
15時-2日03時:040度から11ノットの風

石垣空港
TAF ROIG 311108Z 3112/0118 24005KT 9999 FEW015 BKN025 
  BECMG 3122/0100 34010KT 
  TEMPO 3123/0103 3000 TSRA FEW004 BKN008 SCT020CB 
  TEMPO 0103/0106 4000 SHRA FEW004 BKN008 FEW020CB
日本時間31日21時-1日07時:240度から5ノットの風
07-09時:風が変化
09時-2日03時:340度から10ノットの風

マウイのカフルイ空港
PHOG 311120Z 3112/0112 06010G15KT P6SM FEW035 BKN050 
  FM311800 06017G27KT P6SM FEW035 SCT050 
  FM010600 06010G15KT P6SM FEW035 SCT050 AMD LTD TO VIS AND WIND TIL 311600
ハワイ時間31日02時-08時:060度から10ノット、突風15ノット
08-20時:060度から17ノット、突風27ノット
20時-1日02時:060度から10ノット、突風15ノット
コメント

5/30-6/1の航空気象通報

2018年05月30日 23時53分45秒 | TAF
羽田空港
TAF RJTT 301107Z 3012/3118 35012KT 9999 FEW008 BKN020
BECMG 3100/3103 18016KT
BECMG 3115/3118 32004KT
日本時間30日21時-31日09時:350度から12ノットの風
09-12時:風が変化
12-24時:180度から16ノットの風
1日00-03時:320度から4ノットの風


静岡空港
TAF RJNS 301105Z 3012/3118 04004KT 9999 FEW020
BECMG 3013/3015 28006KT
日本時間30日21-22時:040度から4ノットの風
22-24時:風が変化
31日00時-1日03時:280度から6ノットの風


福岡空港
TAF RJFF 301106Z 3012/3118 31005KT 9999 FEW010 SCT015 BKN020
BECMG 3012/3014 15004KT
BECMG 3022/3100 31008KT
日本時間30日21時:310度から5ノットの風
21-23時:風が変化
23時-31日07時:150度から4ノットの風
07-09時:風が変化
09時-1日03時:310度から8ノットの風


那覇空港
TAF ROAH 301110Z 3012/3118 19008KT 9999 FEW008 SCT020
TEMPO 3017/3020 FEW005 BKN008
BECMG 3112/3115 02010KT
TEMPO 3112/3115 4000 SHRA FEW007 BKN010 FEW020CB
日本時間30日21時-31日21時:190度から8ノットの風
21-24時:風が変化
1日00-03時:020度から10ノットの風

但し、31日02-05時の間:時々
但し、31日21-24時の間:時々

石垣空港
TAF ROIG 301113Z 3012/3118 20006KT 9999 FEW015 SCT025
日本時間30日21時-31日03時:200度から6ノットの風


マウイのカフルイ空港
PHOG 301123Z 3012/3112 06015G23KT P6SM VCSH FEW025 SCT050 BKN100
FM302000 06022G32KT P6SM FEW025 SCT050
FM310400 06015G23KT P6SM VCSH FEW025 SCT050
FM310800 05010KT P6SM VCSH FEW025 SCT050 AMD LTD TO VIS AND WIND TIL 301600
ハワイ時間30日02-10時:060度から15ノット、突風23ノット

10-18時:060度から22ノット、突風32ノット
18-22時:060度から15ノット、突風23ノット
22時-31日02時:050度から10ノットの風


サイパン空港
PGSN 301125Z 3012/3112 07015KT P6SM VCSH FEW020 SCT035
マリアナ時間30日22時-31日22時:070度から15ノットの風
コメント

5/27-5/29の航空気象通報

2018年05月27日 22時53分38秒 | TAF
羽田空港
TAF RJTT 271106Z 2712/2818 08010KT 9999 FEW015 BKN025
BECMG 2718/2720 30004KT
BECMG 2721/2723 18016KT
日本時間27日21時-28日03時:080度から10ノットの風
03-05時:風が変化
05-06時:300度から4ノットの風
06-08時:風が変化
08時-29日03時:180度から16ノットの風


静岡空港
TAF RJNS 271105Z 2712/2818 27004KT 8000 FEW008 BKN015
TEMPO 2714/2721 FEW005 BKN008
日本時間27日21時-29日03時:270度から4ノットの風


福岡空港
TAF RJFF 271109Z 2712/2818 15004KT 9999 FEW020 SCT030
TEMPO 2721/2806 4000 SHRA BR
TEMPO 2806/2812 4000 -SHRA BR
TEMPO 2812/2818 3000 SHRA BR
日本時間27日21時-29日03時:150度から4ノットの風

但し、28日06時-29日03時の間:時々

那覇空港
TAF ROAH 271112Z 2712/2818 21007KT 9999 FEW008 BKN015
TEMPO 2712/2715 FEW004 BKN007
TEMPO 2715/2721 4000 BR FEW002 BKN005
TEMPO 2721/2723 FEW005 BKN008
TEMPO 2812/2818 FEW005 BKN008
日本時間27日21時-29日03時:210度から7ノットの風


石垣空港
TAF ROIG 271115Z 2712/2818 18005KT 9999 FEW010 SCT020
日本時間27日21時-29日03時:180度から5ノットの風


マウイのカフルイ空港
PHOG 271123Z 2712/2812 06012KT P6SM FEW030 SCT050
FM272000 05014G22KT P6SM FEW030 SCT050
FM280500 05012KT P6SM FEW030 SCT050 AMD NOT SKED TIL 271600
ハワイ時間27日02-10時:060度から12ノットの風
10-19時:050度から14ノット、突風22ノット
19時-28日02時:050度から12ノットの風


サイパン空港
PGSN 271129Z 2712/2812 10009KT P6SM FEW020 FEW050
FM280000 10011G18KT P6SM FEW020 SCT050
マリアナ時間27日22時-28日10時:100度から9ノットの風
10-22時:100度から11ノット、突風18ノット
コメント

5/26-5/28の航空気象通報

2018年05月26日 21時52分21秒 | TAF
羽田空港
TAF RJTT 261105Z 2612/2718 05010KT 9999 FEW010 BKN020
BECMG 2700/2703 10008KT
BECMG 2703/2706 18014KT
BECMG 2709/2712 08010KT
日本時間26日21時-27日09時:050度から10ノットの風
09-12時:風が変化
12時:100度から8ノットの風
12-15時:風が変化
15-18時:180度から14ノットの風
18-21時:風が変化
21時-28日03時:080度から10ノットの風


静岡空港
TAF RJNS 261106Z 2612/2718 26006KT 9999 FEW010 BKN020
BECMG 2700/2703 20010KT
BECMG 2709/2712 32004KT
TEMPO 2715/2718 FEW005 BKN008
日本時間26日21時-27日09時:260度から6ノットの風
09-12時:風が変化
12-18時:200度から10ノットの風
18-21時:風が変化
21時-28日03時:320度から4ノットの風


福岡空港
TAF RJFF 261106Z 2612/2718 05005KT 9999 FEW040
BECMG 2612/2614 15004KT
BECMG 2703/2706 32010KT
BECMG 2712/2715 15003KT
日本時間26日21時:050度から5ノットの風
21-23時:風が変化
23時-27日12時:150度から4ノットの風
12-15時:風が変化
15-21時:320度から10ノットの風
21-24時:風が変化
28日00-03時:150度から3ノットの風


那覇空港
TAF ROAH 261106Z 2612/2718 22009KT 9000 FEW005 SCT010
TEMPO 2612/2703 SCT005 BKN008
日本時間26日21時-28日03時:220度から9ノットの風

但し、26日21時-27日12時の間:時々

石垣空港
TAF ROIG 261108Z 2612/2718 23004KT 9999 FEW015 SCT025
日本時間26日21時-28日03時:230度から4ノットの風


マウイのカフルイ空港
PHOG 261128Z 2612/2712 05012G20KT P6SM FEW030 SCT050
FM262100 05015G25KT P6SM FEW030 BKN050
FM270400 06014KT P6SM FEW030 SCT050 AMD NOT SKED TIL 261600
ハワイ時間26日02-10時:050度から12ノット、突風20ノット
10-18時:050度から15ノット、突風25ノット
18時-27日02時:060度から14ノットの風


サイパン空港
PGSN 261131Z 2612/2712 10011KT P6SM SCT021 SCT110
マリアナ時間26日22時-27日22時:100度から11ノットの風
コメント

5/25-5/27の航空気象通報

2018年05月26日 00時05分35秒 | TAF
羽田空港
TAF RJTT 251108Z 2512/2618 20012KT 9999 FEW030
BECMG 2514/2516 34004KT
BECMG 2519/2521 04010KT
BECMG 2600/2603 07010KT
BECMG 2603/2606 18012KT
日本時間25日21-23時:200度から12ノットの風
23時-26日01時:風が変化
01-04時:340度から4ノットの風
04-06時:風が変化
06-09時:040度から10ノットの風
09-12時:風が変化
12時:070度から10ノットの風
12-15時:風が変化
15時-27日03時:180度から12ノットの風


静岡空港
TAF RJNS 251109Z 2512/2618 26008KT 9999 FEW030
BECMG 2521/2523 07006KT
BECMG 2603/2606 18014KT
BECMG 2609/2612 27005KT
日本時間25日21時-26日06時:260度から8ノットの風
06-08時:風が変化
08-12時:070度から6ノットの風
12-15時:風が変化
15-18時:180度から14ノットの風
18-21時:風が変化
21時-27日03時:270度から5ノットの風


福岡空港
TAF RJFF 251105Z 2512/2618 16012KT 9999 -RA FEW030 BKN045
BECMG 2603/2606 36006KT
BECMG 2606/2609 11006KT
日本時間25日21時-26日12時:160度から12ノットの風
12-15時:風が変化
15時:360度から6ノットの風
15-18時:風が変化
18時-27日03時:110度から6ノットの風


那覇空港
TAF ROAH 251106Z 2512/2618 20010KT 9999 FEW010 SCT025
日本時間25日21時-27日03時:200度から10ノットの風


石垣空港
TAF ROIG 251108Z 2512/2618 22010KT 9999 FEW010 SCT020
日本時間25日21時-27日03時:220度から10ノットの風


マウイのカフルイ空港
PHOG 251137Z 2512/2612 05010KT P6SM SCT030 SCT050 BKN250
TEMPO 2516/2520 05010G18KT
FM252000 05015G25KT P6SM SCT030 SCT050 BKN250
FM260600 05010G18KT P6SM SCT030 SCT050 BKN250 AMD NOT SKED TIL 251600
ハワイ時間25日02-10時:050度から10ノットの風

但し、25日01-05時の間:時々050度から10ノット、突風18ノット
10-20時:050度から15ノット、突風25ノット
20時-26日02時:050度から10ノット、突風18ノット


サイパン空港
PGSN 251120Z 2512/2612 09011KT P6SM VCSH SCT023
マリアナ時間25日22時-26日22時:090度から11ノットの風

コメント